createdAt,value
2019-05-26T00:01:45.117Z,20.80
2019-05-26T00:04:13.131Z,20.80
2019-05-26T00:06:41.205Z,20.80
2019-05-26T00:09:09.435Z,20.80
2019-05-26T00:11:37.553Z,20.80
2019-05-26T00:14:05.873Z,20.80
2019-05-26T00:16:34.052Z,20.80
2019-05-26T00:19:02.142Z,20.80
2019-05-26T00:21:30.277Z,20.80
2019-05-26T00:23:58.304Z,20.70
2019-05-26T00:26:26.409Z,20.80
2019-05-26T00:28:54.598Z,20.70
2019-05-26T00:31:22.644Z,20.70
2019-05-26T00:33:50.705Z,20.70
2019-05-26T00:36:18.852Z,20.70
2019-05-26T00:38:46.908Z,20.70
2019-05-26T00:41:15.115Z,20.80
2019-05-26T00:43:43.169Z,20.70
2019-05-26T00:46:11.322Z,20.70
2019-05-26T00:48:41.457Z,20.70
2019-05-26T00:51:09.737Z,20.70
2019-05-26T00:53:37.765Z,20.70
2019-05-26T00:56:05.964Z,20.70
2019-05-26T00:58:34.006Z,20.70
2019-05-26T01:01:02.147Z,20.70
2019-05-26T01:03:30.196Z,20.70
2019-05-26T01:05:58.199Z,20.70
2019-05-26T01:08:26.257Z,20.70
2019-05-26T01:10:54.284Z,20.70
2019-05-26T01:13:22.352Z,20.70
2019-05-26T01:15:50.438Z,20.70
2019-05-26T01:18:18.491Z,20.70
2019-05-26T01:20:46.507Z,20.70
2019-05-26T01:23:14.537Z,20.70
2019-05-26T01:25:42.592Z,20.70
2019-05-26T01:28:10.668Z,20.70
2019-05-26T01:30:39.030Z,20.70
2019-05-26T01:33:07.327Z,20.70
2019-05-26T01:35:35.337Z,20.70
2019-05-26T01:38:03.566Z,20.70
2019-05-26T01:40:34.039Z,20.70
2019-05-26T01:43:02.100Z,20.70
2019-05-26T01:45:30.161Z,20.70
2019-05-26T01:47:58.357Z,20.70
2019-05-26T01:50:26.458Z,20.70
2019-05-26T01:52:54.532Z,20.70
2019-05-26T01:55:22.759Z,20.70
2019-05-26T01:57:51.395Z,20.70
2019-05-26T02:00:19.472Z,20.70
2019-05-26T02:02:47.529Z,20.70
2019-05-26T02:05:15.587Z,20.70
2019-05-26T02:07:43.675Z,20.70
2019-05-26T02:10:11.695Z,20.70
2019-05-26T02:12:39.830Z,20.70
2019-05-26T02:15:07.843Z,20.70
2019-05-26T02:17:35.933Z,20.70
2019-05-26T02:20:03.997Z,20.70
2019-05-26T02:22:32.126Z,20.70
2019-05-26T02:25:00.154Z,20.70
2019-05-26T02:27:28.301Z,20.70
2019-05-26T02:29:56.525Z,20.70
2019-05-26T02:32:24.600Z,20.70
2019-05-26T02:34:52.668Z,20.70
2019-05-26T02:37:20.699Z,20.70
2019-05-26T02:39:48.851Z,20.70
2019-05-26T02:42:16.885Z,20.70
2019-05-26T02:44:45.023Z,20.70
2019-05-26T02:47:13.338Z,20.70
2019-05-26T02:49:41.434Z,20.70
2019-05-26T02:52:09.739Z,20.70
2019-05-26T02:54:37.866Z,20.70
2019-05-26T02:57:05.966Z,20.70
2019-05-26T02:59:34.078Z,20.70
2019-05-26T03:02:04.531Z,20.70
2019-05-26T03:04:32.214Z,20.70
2019-05-26T03:07:00.292Z,20.70
2019-05-26T03:09:28.313Z,20.70
2019-05-26T03:11:56.479Z,20.60
2019-05-26T03:14:24.773Z,20.70
2019-05-26T03:16:52.861Z,20.70
2019-05-26T03:19:20.979Z,20.60
2019-05-26T03:21:49.003Z,20.70
2019-05-26T03:24:17.246Z,20.60
2019-05-26T03:26:45.320Z,20.70
2019-05-26T03:29:13.354Z,20.60
2019-05-26T03:31:41.392Z,20.60
2019-05-26T03:34:09.472Z,20.60
2019-05-26T03:36:37.533Z,20.70
2019-05-26T03:39:05.602Z,20.60
2019-05-26T03:41:33.768Z,20.60
2019-05-26T03:44:01.791Z,20.60
2019-05-26T03:46:30.154Z,20.70
2019-05-26T03:48:58.210Z,20.60
2019-05-26T03:51:26.215Z,20.60
2019-05-26T03:53:54.381Z,20.60
2019-05-26T03:56:22.587Z,20.60
2019-05-26T03:58:50.612Z,20.60
2019-05-26T04:01:18.679Z,20.60
2019-05-26T04:03:46.711Z,20.60
2019-05-26T04:06:14.768Z,20.60
2019-05-26T04:08:42.873Z,20.70
2019-05-26T04:11:10.956Z,20.60
2019-05-26T04:13:38.957Z,20.60
2019-05-26T04:16:06.951Z,20.60
2019-05-26T04:18:35.026Z,20.70
2019-05-26T04:21:03.152Z,20.60
2019-05-26T04:23:31.446Z,20.60
2019-05-26T04:25:59.622Z,20.60
2019-05-26T04:28:27.827Z,20.60
2019-05-26T04:30:55.920Z,20.70
2019-05-26T04:33:27.564Z,20.70
2019-05-26T04:35:55.594Z,20.70
2019-05-26T04:38:23.648Z,20.60
2019-05-26T04:40:51.677Z,20.60
2019-05-26T04:43:19.667Z,20.60
2019-05-26T04:45:47.726Z,20.60
2019-05-26T04:48:15.899Z,20.70
2019-05-26T04:50:44.017Z,20.70
2019-05-26T04:53:12.144Z,20.70
2019-05-26T04:55:40.394Z,20.70
2019-05-26T04:58:08.532Z,20.70
2019-05-26T05:00:36.769Z,20.70
2019-05-26T05:03:04.841Z,20.70
2019-05-26T05:05:32.836Z,20.70
2019-05-26T05:08:00.854Z,20.70
2019-05-26T05:10:41.806Z,20.70
2019-05-26T05:12:59.073Z,20.70
2019-05-26T05:15:27.157Z,20.70
2019-05-26T05:17:55.276Z,20.70
2019-05-26T05:20:23.335Z,20.70
2019-05-26T05:22:53.415Z,20.70
2019-05-26T05:25:21.341Z,20.70
2019-05-26T05:27:49.539Z,20.70
2019-05-26T05:30:17.656Z,20.70
2019-05-26T05:32:45.715Z,20.70
2019-05-26T05:35:14.019Z,20.70
2019-05-26T05:37:42.258Z,20.70
2019-05-26T05:40:10.316Z,20.70
2019-05-26T05:42:38.368Z,20.70
2019-05-26T05:45:06.463Z,20.70
2019-05-26T05:47:34.733Z,20.70
2019-05-26T05:50:02.819Z,20.70
2019-05-26T05:52:31.032Z,20.70
2019-05-26T05:54:59.191Z,20.70
2019-05-26T05:57:27.318Z,20.70
2019-05-26T05:59:55.401Z,20.70
2019-05-26T06:02:23.504Z,20.70
2019-05-26T06:04:51.610Z,20.70
2019-05-26T06:07:19.919Z,20.70
2019-05-26T06:09:48.336Z,20.60
2019-05-26T06:12:16.363Z,20.60
2019-05-26T06:14:44.516Z,20.60
2019-05-26T06:17:12.649Z,20.60
2019-05-26T06:19:40.689Z,20.70
2019-05-26T06:22:09.420Z,20.70
2019-05-26T06:24:37.628Z,20.70
2019-05-26T06:27:05.774Z,20.70
2019-05-26T06:29:33.955Z,20.70
2019-05-26T06:32:02.399Z,20.70
2019-05-26T06:34:30.652Z,20.70
2019-05-26T06:36:58.772Z,20.70
2019-05-26T06:39:26.998Z,20.70
2019-05-26T06:41:55.048Z,20.70
2019-05-26T06:44:23.166Z,20.70
2019-05-26T06:46:51.216Z,20.70
2019-05-26T06:49:19.199Z,20.70
2019-05-26T06:51:47.227Z,20.70
2019-05-26T06:54:15.335Z,20.70
2019-05-26T06:56:44.407Z,20.80
2019-05-26T06:59:14.247Z,20.80
2019-05-26T07:01:42.635Z,20.80
2019-05-26T07:04:13.433Z,20.80
2019-05-26T07:06:41.550Z,20.80
2019-05-26T07:09:09.633Z,20.80
2019-05-26T07:11:53.845Z,20.80
2019-05-26T07:14:07.823Z,20.90
2019-05-26T07:16:38.402Z,20.90
2019-05-26T07:19:05.973Z,20.90
2019-05-26T07:21:34.224Z,20.90
2019-05-26T07:24:02.393Z,20.90
2019-05-26T07:26:30.467Z,20.90
2019-05-26T07:28:58.849Z,20.90
2019-05-26T07:31:27.018Z,20.90
2019-05-26T07:33:59.814Z,20.90
2019-05-26T07:36:28.145Z,20.90
2019-05-26T07:38:56.315Z,20.90
2019-05-26T07:41:24.380Z,20.90
2019-05-26T07:43:52.715Z,20.90
2019-05-26T07:46:20.867Z,20.90
2019-05-26T07:48:49.212Z,20.90
2019-05-26T07:51:17.978Z,20.90
2019-05-26T07:53:51.949Z,20.90
2019-05-26T07:56:20.038Z,20.90
2019-05-26T07:58:48.092Z,20.90
2019-05-26T08:01:18.584Z,21.00
2019-05-26T08:03:47.906Z,21.00
2019-05-26T08:06:17.909Z,21.00
2019-05-26T08:08:50.330Z,21.00
2019-05-26T08:11:18.743Z,21.00
2019-05-26T08:13:46.884Z,21.00
2019-05-26T08:16:19.445Z,21.00
2019-05-26T08:18:47.514Z,21.00
2019-05-26T08:21:17.485Z,21.00
2019-05-26T08:23:45.550Z,21.00
2019-05-26T08:26:13.758Z,21.00
2019-05-26T08:28:42.006Z,21.00
2019-05-26T08:31:13.468Z,21.10
2019-05-26T08:33:41.298Z,21.10
2019-05-26T08:36:09.865Z,21.10
2019-05-26T08:38:37.899Z,21.10
2019-05-26T08:41:05.989Z,21.10
2019-05-26T08:43:34.153Z,21.10
2019-05-26T08:46:02.330Z,21.10
2019-05-26T08:48:33.427Z,21.10
2019-05-26T08:51:01.691Z,21.10
2019-05-26T08:53:30.240Z,21.10
2019-05-26T08:55:58.298Z,21.10
2019-05-26T08:58:29.314Z,21.20
2019-05-26T09:00:57.945Z,21.20
2019-05-26T09:03:26.499Z,21.20
2019-05-26T09:05:54.770Z,21.20
2019-05-26T09:08:23.522Z,21.20
2019-05-26T09:10:54.506Z,21.20
2019-05-26T09:13:22.521Z,21.20
2019-05-26T09:15:50.873Z,21.20
2019-05-26T09:18:20.300Z,21.20
2019-05-26T09:20:48.348Z,21.20
2019-05-26T09:23:16.421Z,21.20
2019-05-26T09:25:46.564Z,21.30
2019-05-26T09:28:14.328Z,21.20
2019-05-26T09:30:42.689Z,21.20
2019-05-26T09:33:10.836Z,21.30
2019-05-26T09:35:40.270Z,21.20
2019-05-26T09:38:08.771Z,21.30
2019-05-26T09:40:40.196Z,21.30
2019-05-26T09:43:16.298Z,21.30
2019-05-26T09:45:37.977Z,21.30
2019-05-26T09:48:06.126Z,21.30
2019-05-26T09:50:34.161Z,21.30
2019-05-26T09:53:02.328Z,21.30
2019-05-26T09:55:30.414Z,21.30
2019-05-26T09:57:58.425Z,21.30
2019-05-26T10:00:26.516Z,21.30
2019-05-26T10:02:54.532Z,21.40
2019-05-26T10:05:22.786Z,21.40
2019-05-26T10:07:51.031Z,21.40
2019-05-26T10:10:19.090Z,21.40
2019-05-26T10:12:47.130Z,21.40
2019-05-26T10:15:19.820Z,21.40
2019-05-26T10:17:48.045Z,21.50
2019-05-26T10:20:16.056Z,21.50
2019-05-26T10:22:44.135Z,21.50
2019-05-26T10:25:12.399Z,21.60
2019-05-26T10:27:40.486Z,21.60
2019-05-26T10:30:08.528Z,21.60
2019-05-26T10:32:36.634Z,21.60
2019-05-26T10:35:04.828Z,21.60
2019-05-26T10:37:32.870Z,21.60
2019-05-26T10:40:01.007Z,21.60
2019-05-26T10:42:29.373Z,21.60
2019-05-26T10:44:57.558Z,21.60
2019-05-26T10:47:25.598Z,21.70
2019-05-26T10:49:53.686Z,21.60
2019-05-26T10:52:21.906Z,21.70
2019-05-26T10:54:49.951Z,21.70
2019-05-26T10:57:17.976Z,21.70
2019-05-26T10:59:46.148Z,21.70
2019-05-26T11:02:14.165Z,21.70
2019-05-26T11:04:42.190Z,21.70
2019-05-26T11:07:10.328Z,21.70
2019-05-26T11:09:38.578Z,21.70
2019-05-26T11:12:06.564Z,21.70
2019-05-26T11:14:34.719Z,21.70
2019-05-26T11:17:02.768Z,21.70
2019-05-26T11:19:30.964Z,21.70
2019-05-26T11:21:59.550Z,21.80
2019-05-26T11:24:27.708Z,21.70
2019-05-26T11:27:06.399Z,21.70
2019-05-26T11:29:25.583Z,21.70
2019-05-26T11:31:53.657Z,21.70
2019-05-26T11:34:21.708Z,21.70
2019-05-26T11:36:49.837Z,21.70
2019-05-26T11:39:17.869Z,21.70
2019-05-26T11:41:54.369Z,21.70
2019-05-26T11:44:18.287Z,21.70
2019-05-26T11:46:45.758Z,21.70
2019-05-26T11:49:13.880Z,21.70
2019-05-26T11:51:41.950Z,21.70
2019-05-26T11:54:10.058Z,21.70
2019-05-26T11:56:38.262Z,21.70
2019-05-26T11:59:06.335Z,21.70
2019-05-26T12:01:34.365Z,21.70
2019-05-26T12:04:02.418Z,21.70
2019-05-26T12:06:30.656Z,21.70
2019-05-26T12:08:58.932Z,21.70
2019-05-26T12:11:27.011Z,21.70
2019-05-26T12:13:55.021Z,21.80
2019-05-26T12:16:23.156Z,21.80
2019-05-26T12:18:51.145Z,21.80
2019-05-26T12:21:19.230Z,21.80
2019-05-26T12:23:47.519Z,21.80
2019-05-26T12:26:15.602Z,21.90
2019-05-26T12:28:43.589Z,21.90
2019-05-26T12:31:11.703Z,21.90
2019-05-26T12:33:39.740Z,21.90
2019-05-26T12:36:07.884Z,21.90
2019-05-26T12:38:39.217Z,21.90
2019-05-26T12:41:08.465Z,21.90
2019-05-26T12:43:36.709Z,21.90
2019-05-26T12:46:04.897Z,21.90
2019-05-26T12:48:33.040Z,21.90
2019-05-26T12:51:01.278Z,21.90
2019-05-26T12:53:29.507Z,21.90
2019-05-26T12:55:57.667Z,21.90
2019-05-26T12:58:25.766Z,21.90
2019-05-26T13:00:55.274Z,21.90
2019-05-26T13:03:23.581Z,21.90
2019-05-26T13:05:51.675Z,21.90
2019-05-26T13:08:19.775Z,21.90
2019-05-26T13:10:47.836Z,21.90
2019-05-26T13:13:15.906Z,21.90
2019-05-26T13:15:44.037Z,21.90
2019-05-26T13:18:12.265Z,21.90
2019-05-26T13:20:40.520Z,21.90
2019-05-26T13:23:08.699Z,21.90
2019-05-26T13:25:37.092Z,21.90
2019-05-26T13:28:05.264Z,21.90
2019-05-26T13:30:33.784Z,21.90
2019-05-26T13:33:01.877Z,21.90
2019-05-26T13:35:29.949Z,21.90
2019-05-26T13:37:58.092Z,21.90
2019-05-26T13:40:29.566Z,22.00
2019-05-26T13:42:56.589Z,22.00
2019-05-26T13:45:26.177Z,22.00
2019-05-26T13:47:54.576Z,22.00
2019-05-26T13:50:22.866Z,22.00
2019-05-26T13:52:51.176Z,22.00
2019-05-26T13:55:20.473Z,22.00
2019-05-26T13:57:49.684Z,22.00
2019-05-26T14:00:18.233Z,21.90
2019-05-26T14:02:47.687Z,22.00
2019-05-26T14:05:15.728Z,21.90
2019-05-26T14:07:43.970Z,22.00
2019-05-26T14:10:13.803Z,21.90
2019-05-26T14:12:41.878Z,22.00
2019-05-26T14:15:09.971Z,22.00
2019-05-26T14:17:38.175Z,22.00
2019-05-26T14:20:06.342Z,22.00
2019-05-26T14:22:34.460Z,22.00
2019-05-26T14:25:02.866Z,22.00
2019-05-26T14:27:31.000Z,22.00
2019-05-26T14:29:59.151Z,22.00
2019-05-26T14:32:27.293Z,22.00
2019-05-26T14:34:55.376Z,22.00
2019-05-26T14:37:23.735Z,22.00
2019-05-26T14:39:51.908Z,22.00
2019-05-26T14:42:20.399Z,22.00
2019-05-26T14:44:48.693Z,22.00
2019-05-26T14:47:17.632Z,22.00
2019-05-26T14:49:45.821Z,22.00
2019-05-26T14:52:13.896Z,22.00
2019-05-26T14:54:42.053Z,22.00
2019-05-26T14:57:10.169Z,22.00
2019-05-26T14:59:38.276Z,22.00
2019-05-26T15:02:06.462Z,22.00
2019-05-26T15:04:34.611Z,22.00
2019-05-26T15:07:03.429Z,22.00
2019-05-26T15:09:50.269Z,22.10
2019-05-26T15:12:18.371Z,22.10
2019-05-26T15:14:46.478Z,22.00
2019-05-26T15:17:15.050Z,22.10
2019-05-26T15:19:43.226Z,22.10
2019-05-26T15:22:11.461Z,22.10
2019-05-26T15:24:40.046Z,22.10
2019-05-26T15:27:08.489Z,22.10
2019-05-26T15:29:36.795Z,22.10
2019-05-26T15:32:05.021Z,22.10
2019-05-26T15:34:33.171Z,22.10
2019-05-26T15:37:02.473Z,22.10
2019-05-26T15:39:30.550Z,22.10
2019-05-26T15:41:59.856Z,22.10
2019-05-26T15:44:28.402Z,22.10
2019-05-26T15:46:56.701Z,22.10
2019-05-26T15:49:27.509Z,22.20
2019-05-26T15:51:58.252Z,22.10
2019-05-26T15:54:26.444Z,22.20
2019-05-26T15:56:57.838Z,22.10
2019-05-26T15:59:26.086Z,22.10
2019-05-26T16:01:54.452Z,22.10
2019-05-26T16:04:22.932Z,22.10
2019-05-26T16:06:54.547Z,22.10
2019-05-26T16:09:22.724Z,22.10
2019-05-26T16:11:50.828Z,22.20
2019-05-26T16:14:18.827Z,22.20
2019-05-26T16:16:46.999Z,22.20
2019-05-26T16:19:14.996Z,22.20
2019-05-26T16:21:43.214Z,22.10
2019-05-26T16:24:11.732Z,22.20
2019-05-26T16:26:39.902Z,22.20
2019-05-26T16:29:08.099Z,22.10
2019-05-26T16:31:36.355Z,22.10
2019-05-26T16:34:04.425Z,22.10
2019-05-26T16:36:32.841Z,22.10
2019-05-26T16:39:00.958Z,22.10
2019-05-26T16:41:29.030Z,22.10
2019-05-26T16:43:57.153Z,22.10
2019-05-26T16:46:25.401Z,22.10
2019-05-26T16:48:54.743Z,22.10
2019-05-26T16:51:23.177Z,22.10
2019-05-26T16:53:51.231Z,22.10
2019-05-26T16:56:19.323Z,22.10
2019-05-26T16:58:47.517Z,22.10
2019-05-26T17:01:16.301Z,22.10
2019-05-26T17:03:44.444Z,22.10
2019-05-26T17:06:12.808Z,22.10
2019-05-26T17:08:40.937Z,22.10
2019-05-26T17:11:09.395Z,22.10
2019-05-26T17:13:39.309Z,22.10
2019-05-26T17:16:07.348Z,22.10
2019-05-26T17:18:35.940Z,22.10
2019-05-26T17:21:04.213Z,22.00
2019-05-26T17:23:32.415Z,22.10
2019-05-26T17:26:00.616Z,22.10
2019-05-26T17:28:34.122Z,22.10
2019-05-26T17:31:05.529Z,22.10
2019-05-26T17:33:33.865Z,22.10
2019-05-26T17:36:02.334Z,22.10
2019-05-26T17:38:32.675Z,22.10
2019-05-26T17:41:00.811Z,22.00
2019-05-26T17:43:28.880Z,22.00
2019-05-26T17:45:57.096Z,22.00
2019-05-26T17:48:25.195Z,22.00
2019-05-26T17:50:53.336Z,22.00
2019-05-26T17:53:21.672Z,22.00
2019-05-26T17:55:49.689Z,22.00
2019-05-26T17:58:17.884Z,22.10
2019-05-26T18:00:45.893Z,22.10
2019-05-26T18:03:13.928Z,22.10
2019-05-26T18:05:42.053Z,22.10
2019-05-26T18:08:10.137Z,22.10
2019-05-26T18:10:38.227Z,22.10
2019-05-26T18:13:06.246Z,22.10
2019-05-26T18:15:34.350Z,22.00
2019-05-26T18:18:02.409Z,22.10
2019-05-26T18:20:30.428Z,22.10
2019-05-26T18:22:58.451Z,22.10
2019-05-26T18:25:26.473Z,22.10
2019-05-26T18:27:54.540Z,22.00
2019-05-26T18:30:22.767Z,22.00
2019-05-26T18:32:50.858Z,22.00
2019-05-26T18:35:18.980Z,22.00
2019-05-26T18:37:47.024Z,21.90
2019-05-26T18:40:15.139Z,21.90
2019-05-26T18:42:43.197Z,21.90
2019-05-26T18:45:11.506Z,21.90
2019-05-26T18:47:39.501Z,21.90
2019-05-26T18:50:07.611Z,21.90
2019-05-26T18:52:35.704Z,21.90
2019-05-26T18:55:03.762Z,21.80
2019-05-26T18:57:31.769Z,21.80
2019-05-26T18:59:59.898Z,21.80
2019-05-26T19:02:27.983Z,21.80
2019-05-26T19:04:56.001Z,21.80
2019-05-26T19:07:24.053Z,21.70
2019-05-26T19:09:52.246Z,21.70
2019-05-26T19:12:20.315Z,21.70
2019-05-26T19:14:48.338Z,21.80
2019-05-26T19:17:16.654Z,21.70
2019-05-26T19:19:44.740Z,21.80
2019-05-26T19:22:12.761Z,21.70
2019-05-26T19:24:40.792Z,21.70
2019-05-26T19:27:08.942Z,21.70
2019-05-26T19:29:37.176Z,21.70
2019-05-26T19:32:08.247Z,21.70
2019-05-26T19:34:39.502Z,21.70
2019-05-26T19:37:08.907Z,21.70
2019-05-26T19:39:36.896Z,21.70
2019-05-26T19:42:05.476Z,21.70
2019-05-26T19:44:33.574Z,21.70
2019-05-26T19:47:04.528Z,21.70
2019-05-26T19:49:33.918Z,21.70
2019-05-26T19:52:02.138Z,21.70
2019-05-26T19:54:30.520Z,21.70
2019-05-26T19:56:58.643Z,21.70
2019-05-26T19:59:27.014Z,21.70
2019-05-26T20:01:55.113Z,21.70
2019-05-26T20:04:23.504Z,21.70
2019-05-26T20:06:52.692Z,21.70
2019-05-26T20:09:20.749Z,21.70
2019-05-26T20:11:50.190Z,21.70
2019-05-26T20:14:21.484Z,21.70
2019-05-26T20:16:49.648Z,21.70
2019-05-26T20:19:18.151Z,21.70
2019-05-26T20:21:46.189Z,21.70
2019-05-26T20:24:17.557Z,21.70
2019-05-26T20:26:48.665Z,21.70
2019-05-26T20:29:18.561Z,21.70
2019-05-26T20:31:46.648Z,21.70
2019-05-26T20:34:14.744Z,21.70
2019-05-26T20:36:42.788Z,21.70
2019-05-26T20:39:14.912Z,21.70
2019-05-26T20:41:40.603Z,21.70
2019-05-26T20:44:10.307Z,21.70
2019-05-26T20:46:38.334Z,21.70
2019-05-26T20:49:09.394Z,21.70
2019-05-26T20:51:40.548Z,21.70
2019-05-26T20:54:11.666Z,21.70
2019-05-26T20:56:42.616Z,21.70
2019-05-26T20:59:15.630Z,21.70
2019-05-26T21:01:45.639Z,21.70
2019-05-26T21:04:13.407Z,21.70
2019-05-26T21:06:41.846Z,21.70
2019-05-26T21:09:11.375Z,21.70
2019-05-26T21:11:39.713Z,21.70
2019-05-26T21:14:07.846Z,21.70
2019-05-26T21:16:36.047Z,21.70
2019-05-26T21:19:07.101Z,21.70
2019-05-26T21:21:35.369Z,21.70
2019-05-26T21:24:03.404Z,21.70
2019-05-26T21:26:31.719Z,21.70
2019-05-26T21:28:59.879Z,21.70
2019-05-26T21:31:30.032Z,21.70
2019-05-26T21:33:58.070Z,21.70
2019-05-26T21:36:26.073Z,21.70
2019-05-26T21:38:54.151Z,21.70
2019-05-26T21:41:22.255Z,21.70
2019-05-26T21:43:50.322Z,21.70
2019-05-26T21:46:18.661Z,21.70
2019-05-26T21:48:47.670Z,21.70
2019-05-26T21:51:15.801Z,21.70
2019-05-26T21:53:43.975Z,21.70
2019-05-26T21:56:12.457Z,21.70
2019-05-26T21:58:40.743Z,21.70
2019-05-26T22:01:08.831Z,21.70
2019-05-26T22:03:36.861Z,21.70
2019-05-26T22:06:04.910Z,21.60
2019-05-26T22:08:33.184Z,21.60
2019-05-26T22:11:01.335Z,21.60
2019-05-26T22:13:29.329Z,21.60
2019-05-26T22:15:57.567Z,21.50
2019-05-26T22:18:25.616Z,21.50
2019-05-26T22:20:53.635Z,21.60
2019-05-26T22:23:21.703Z,21.50
2019-05-26T22:25:49.810Z,21.50
2019-05-26T22:28:17.880Z,21.50
2019-05-26T22:30:45.926Z,21.50
2019-05-26T22:33:14.061Z,21.50
2019-05-26T22:35:42.280Z,21.50
2019-05-26T22:38:11.100Z,21.50
2019-05-26T22:40:39.134Z,21.50
2019-05-26T22:43:07.172Z,21.50
2019-05-26T22:45:35.212Z,21.40
2019-05-26T22:48:03.327Z,21.50
2019-05-26T22:50:31.441Z,21.50
2019-05-26T22:52:59.587Z,21.40
2019-05-26T22:55:27.732Z,21.40
2019-05-26T22:57:55.768Z,21.50
2019-05-26T23:00:23.873Z,21.50
2019-05-26T23:02:51.970Z,21.50
2019-05-26T23:05:19.970Z,21.50
2019-05-26T23:07:48.076Z,21.50
2019-05-26T23:10:16.255Z,21.50
2019-05-26T23:12:44.282Z,21.50
2019-05-26T23:15:12.322Z,21.40
2019-05-26T23:17:40.397Z,21.40
2019-05-26T23:20:08.507Z,21.40
2019-05-26T23:22:36.645Z,21.40
2019-05-26T23:25:04.737Z,21.40
2019-05-26T23:27:32.781Z,21.40
2019-05-26T23:30:01.031Z,21.40
2019-05-26T23:32:29.150Z,21.40
2019-05-26T23:34:57.269Z,21.40
2019-05-26T23:37:25.352Z,21.40
2019-05-26T23:39:53.364Z,21.40
2019-05-26T23:42:21.626Z,21.40
2019-05-26T23:44:49.805Z,21.40
2019-05-26T23:47:17.846Z,21.40
2019-05-26T23:49:46.143Z,21.40
2019-05-26T23:52:14.530Z,21.40
2019-05-26T23:54:42.502Z,21.40
2019-05-26T23:57:10.539Z,21.40
2019-05-26T23:59:38.931Z,21.40
